createdAt,value
2017-08-27T00:04:41.391Z,19.34
2017-08-27T00:09:37.694Z,19.51
2017-08-27T00:14:33.216Z,19.36
2017-08-27T00:19:29.285Z,19.30
2017-08-27T00:24:25.231Z,19.30
2017-08-27T00:29:22.503Z,19.36
2017-08-27T00:34:18.144Z,19.34
2017-08-27T00:39:14.143Z,19.24
2017-08-27T00:44:10.261Z,19.15
2017-08-27T00:49:06.311Z,19.11
2017-08-27T00:54:02.757Z,19.24
2017-08-27T00:58:59.783Z,19.26
2017-08-27T01:03:55.627Z,19.29
2017-08-27T01:08:51.845Z,19.11
2017-08-27T01:13:47.700Z,18.92
2017-08-27T01:18:43.656Z,18.86
2017-08-27T01:23:40.409Z,18.73
2017-08-27T01:28:35.859Z,18.59
2017-08-27T01:33:31.674Z,18.66
2017-08-27T01:38:28.720Z,18.71
2017-08-27T01:43:24.353Z,18.75
2017-08-27T01:48:20.816Z,18.73
2017-08-27T01:53:16.378Z,18.66
2017-08-27T01:58:12.078Z,18.65
2017-08-27T02:03:09.397Z,18.40
2017-08-27T02:08:04.730Z,18.41
2017-08-27T02:13:01.271Z,18.35
2017-08-27T02:17:57.808Z,18.18
2017-08-27T02:22:53.297Z,18.05
2017-08-27T02:27:48.907Z,17.90
2017-08-27T02:32:44.898Z,17.76
2017-08-27T02:37:41.674Z,17.78
2017-08-27T02:42:38.045Z,17.78
2017-08-27T02:47:33.486Z,17.72
2017-08-27T02:52:29.152Z,17.85
2017-08-27T02:57:26.313Z,17.85
2017-08-27T03:02:21.858Z,17.60
2017-08-27T03:07:17.807Z,17.59
2017-08-27T03:12:14.280Z,17.59
2017-08-27T03:17:09.892Z,17.60
2017-08-27T03:22:06.007Z,17.52
2017-08-27T03:27:01.993Z,17.48
2017-08-27T03:31:57.774Z,17.48
2017-08-27T03:36:53.372Z,17.19
2017-08-27T03:41:49.165Z,17.09
2017-08-27T03:46:44.867Z,17.08
2017-08-27T03:51:40.955Z,17.15
2017-08-27T03:56:36.664Z,17.05
2017-08-27T04:01:33.549Z,16.84
2017-08-27T04:06:29.068Z,16.91
2017-08-27T04:11:24.965Z,16.84
2017-08-27T04:16:20.875Z,16.60
2017-08-27T04:21:17.715Z,16.58
2017-08-27T04:26:13.313Z,16.79
2017-08-27T04:31:09.002Z,16.74
2017-08-27T04:36:06.032Z,16.76
2017-08-27T04:41:01.828Z,16.71
2017-08-27T04:45:57.771Z,17.02
2017-08-27T04:50:55.009Z,16.78
2017-08-27T04:55:50.835Z,16.74
2017-08-27T05:00:46.599Z,16.64
2017-08-27T05:05:42.428Z,16.64
2017-08-27T05:10:38.331Z,16.66
2017-08-27T05:15:34.111Z,16.58
2017-08-27T05:20:29.840Z,16.69
2017-08-27T05:25:26.052Z,16.68
2017-08-27T05:30:23.168Z,16.93
2017-08-27T05:35:19.140Z,17.22
2017-08-27T05:40:15.011Z,17.14
2017-08-27T05:45:11.004Z,17.26
2017-08-27T05:50:07.905Z,17.04
2017-08-27T05:55:03.903Z,16.99
2017-08-27T05:59:59.837Z,17.24
2017-08-27T06:04:55.796Z,17.30
2017-08-27T06:09:52.765Z,17.33
2017-08-27T06:14:48.771Z,17.33
2017-08-27T06:19:44.561Z,17.56
2017-08-27T06:24:41.919Z,17.71
2017-08-27T06:29:37.729Z,17.98
2017-08-27T06:34:33.470Z,17.98
2017-08-27T06:39:29.163Z,17.90
2017-08-27T06:44:25.186Z,17.87
2017-08-27T06:49:21.193Z,18.00
2017-08-27T06:54:17.982Z,17.82
2017-08-27T06:59:13.887Z,17.79
2017-08-27T07:04:09.761Z,17.72
2017-08-27T07:09:05.553Z,18.05
2017-08-27T07:14:02.504Z,18.08
2017-08-27T07:18:58.124Z,18.23
2017-08-27T07:23:54.176Z,18.40
2017-08-27T07:28:51.697Z,18.90
2017-08-27T07:33:48.236Z,19.08
2017-08-27T07:38:44.869Z,19.12
2017-08-27T07:43:40.860Z,19.37
2017-08-27T07:48:36.824Z,19.56
2017-08-27T07:53:33.776Z,19.36
2017-08-27T07:58:29.440Z,19.31
2017-08-27T08:03:27.249Z,19.89
2017-08-27T08:08:24.496Z,20.24
2017-08-27T08:13:22.324Z,21.00
2017-08-27T08:18:19.275Z,21.82
2017-08-27T08:23:16.308Z,21.99
2017-08-27T08:28:12.153Z,21.85
2017-08-27T08:33:08.060Z,21.30
2017-08-27T08:38:04.010Z,21.24
2017-08-27T08:42:59.541Z,21.36
2017-08-27T08:47:55.188Z,20.84
2017-08-27T08:52:50.491Z,20.96
2017-08-27T08:57:45.834Z,20.77
2017-08-27T09:02:42.484Z,20.84
2017-08-27T09:07:37.841Z,20.88
2017-08-27T09:12:34.097Z,20.95
2017-08-27T09:17:29.881Z,20.52
2017-08-27T09:22:25.800Z,20.69
2017-08-27T09:27:22.089Z,20.90
2017-08-27T09:32:19.153Z,20.56
2017-08-27T09:37:14.816Z,20.92
2017-08-27T09:42:12.408Z,21.09
2017-08-27T09:47:08.017Z,21.40
2017-08-27T09:52:04.365Z,21.73
2017-08-27T09:57:01.712Z,21.91
2017-08-27T10:01:57.642Z,22.07
2017-08-27T10:06:53.967Z,22.10
2017-08-27T10:11:49.982Z,22.00
2017-08-27T10:16:47.783Z,21.91
2017-08-27T10:21:45.623Z,22.80
2017-08-27T10:26:42.897Z,23.05
2017-08-27T10:31:40.575Z,23.17
2017-08-27T10:36:37.785Z,23.15
2017-08-27T10:41:35.007Z,23.28
2017-08-27T10:46:32.468Z,23.84
2017-08-27T10:51:29.304Z,24.02
2017-08-27T10:56:25.290Z,24.57
2017-08-27T11:01:22.513Z,25.11
2017-08-27T11:06:18.485Z,25.08
2017-08-27T11:11:14.123Z,24.06
2017-08-27T11:16:09.921Z,24.24
2017-08-27T11:21:05.745Z,26.07
2017-08-27T11:26:04.156Z,26.63
2017-08-27T11:31:02.503Z,26.77
2017-08-27T11:35:59.127Z,26.37
2017-08-27T11:40:55.561Z,26.96
2017-08-27T11:45:50.493Z,27.25
2017-08-27T11:50:48.262Z,26.40
2017-08-27T11:55:43.911Z,26.26
2017-08-27T12:00:35.751Z,24.53
2017-08-27T12:05:33.598Z,24.80
2017-08-27T12:10:27.722Z,25.08
2017-08-27T12:15:21.984Z,24.29
2017-08-27T12:20:17.565Z,23.92
2017-08-27T12:25:12.640Z,23.88
2017-08-27T12:30:08.705Z,23.63
2017-08-27T12:35:05.419Z,23.95
2017-08-27T12:40:01.979Z,23.68
2017-08-27T12:44:57.101Z,23.23
2017-08-27T12:49:52.854Z,23.12
2017-08-27T12:54:49.016Z,23.65
2017-08-27T12:59:45.359Z,23.46
2017-08-27T13:04:41.994Z,23.51
2017-08-27T13:09:38.013Z,23.31
2017-08-27T13:14:34.868Z,23.44
2017-08-27T13:19:30.475Z,23.58
2017-08-27T13:24:26.567Z,23.73
2017-08-27T13:29:22.623Z,23.51
2017-08-27T13:34:18.577Z,23.58
2017-08-27T13:39:14.509Z,23.46
2017-08-27T13:44:10.731Z,23.69
2017-08-27T13:49:06.495Z,23.76
2017-08-27T13:54:03.528Z,23.63
2017-08-27T13:58:59.615Z,23.32
2017-08-27T14:03:55.376Z,23.12
2017-08-27T14:08:51.091Z,23.05
2017-08-27T14:13:48.174Z,23.09
2017-08-27T14:18:43.770Z,23.46
2017-08-27T14:23:40.113Z,23.73
2017-08-27T14:28:36.340Z,23.91
2017-08-27T14:33:32.825Z,23.83
2017-08-27T14:38:30.241Z,23.51
2017-08-27T14:43:26.743Z,23.31
2017-08-27T14:48:22.397Z,23.23
2017-08-27T14:53:19.237Z,23.48
2017-08-27T14:58:14.910Z,23.46
2017-08-27T15:03:10.544Z,23.32
2017-08-27T15:08:07.209Z,23.24
2017-08-27T15:13:03.590Z,23.24
2017-08-27T15:18:00.366Z,23.08
2017-08-27T15:22:55.962Z,23.06
2017-08-27T15:27:52.004Z,23.00
2017-08-27T15:32:48.056Z,23.18
2017-08-27T15:37:44.488Z,23.17
2017-08-27T15:42:41.672Z,23.25
2017-08-27T15:47:37.272Z,23.46
2017-08-27T15:52:33.446Z,23.25
2017-08-27T15:57:29.124Z,23.25
2017-08-27T16:02:25.173Z,23.48
2017-08-27T16:07:21.230Z,23.46
2017-08-27T16:12:17.040Z,23.41
2017-08-27T16:17:12.960Z,23.27
2017-08-27T16:22:08.659Z,23.13
2017-08-27T16:27:04.435Z,23.02
2017-08-27T16:32:00.331Z,22.91
2017-08-27T16:36:56.501Z,22.90
2017-08-27T16:41:52.489Z,22.90
2017-08-27T16:46:49.964Z,22.76
2017-08-27T16:51:45.783Z,22.72
2017-08-27T16:56:41.658Z,22.83
2017-08-27T17:01:38.461Z,22.70
2017-08-27T17:06:34.025Z,22.55
2017-08-27T17:11:30.018Z,22.57
2017-08-27T17:16:25.940Z,22.57
2017-08-27T17:21:22.908Z,22.59
2017-08-27T17:26:18.562Z,22.41
2017-08-27T17:31:16.493Z,22.45
2017-08-27T17:36:11.873Z,22.36
2017-08-27T17:41:09.162Z,22.25
2017-08-27T17:46:05.722Z,22.07
2017-08-27T17:51:02.285Z,22.04
2017-08-27T17:55:58.135Z,22.02
2017-08-27T18:00:53.964Z,21.89
2017-08-27T18:05:49.727Z,21.66
2017-08-27T18:10:46.446Z,21.67
2017-08-27T18:15:43.034Z,21.48
2017-08-27T18:20:38.554Z,21.27
2017-08-27T18:25:34.338Z,21.11
2017-08-27T18:30:31.332Z,21.02
2017-08-27T18:35:26.685Z,20.82
2017-08-27T18:40:22.713Z,20.70
2017-08-27T18:45:18.671Z,20.69
2017-08-27T18:50:14.329Z,20.78
2017-08-27T18:55:10.488Z,20.40
2017-08-27T19:00:06.795Z,20.40
2017-08-27T19:05:03.060Z,20.28
2017-08-27T19:10:00.997Z,20.13
2017-08-27T19:14:57.479Z,20.16
2017-08-27T19:19:53.127Z,20.10
2017-08-27T19:24:50.058Z,20.04
2017-08-27T19:29:46.561Z,20.10
2017-08-27T19:34:43.514Z,20.07
2017-08-27T19:39:41.094Z,19.88
2017-08-27T19:44:38.098Z,19.71
2017-08-27T19:49:34.213Z,19.64
2017-08-27T19:54:31.209Z,19.62
2017-08-27T19:59:27.836Z,19.36
2017-08-27T20:04:23.238Z,19.14
2017-08-27T20:09:19.027Z,18.99
2017-08-27T20:14:14.959Z,18.99
2017-08-27T20:19:10.584Z,18.90
2017-08-27T20:24:06.303Z,18.90
2017-08-27T20:29:02.136Z,18.60
2017-08-27T20:33:58.913Z,18.52
2017-08-27T20:38:54.486Z,18.59
2017-08-27T20:43:51.820Z,18.59
2017-08-27T20:48:47.072Z,18.70
2017-08-27T20:53:44.001Z,18.63
2017-08-27T20:58:39.687Z,18.53
2017-08-27T21:03:35.808Z,18.49
2017-08-27T21:08:32.775Z,18.37
2017-08-27T21:13:28.340Z,18.20
2017-08-27T21:18:24.114Z,18.11
2017-08-27T21:23:19.579Z,17.97
2017-08-27T21:28:16.269Z,17.89
2017-08-27T21:33:12.946Z,17.89
2017-08-27T21:38:08.475Z,17.98
2017-08-27T21:43:04.285Z,18.10
2017-08-27T21:48:00.606Z,17.94
2017-08-27T21:52:57.492Z,17.92
2017-08-27T21:57:53.120Z,17.71
2017-08-27T22:02:50.358Z,17.70
2017-08-27T22:07:46.026Z,17.71
2017-08-27T22:12:41.567Z,17.52
2017-08-27T22:17:37.367Z,17.59
2017-08-27T22:22:33.809Z,17.46
2017-08-27T22:27:29.746Z,17.38
2017-08-27T22:32:25.501Z,17.46
2017-08-27T22:37:21.436Z,17.29
2017-08-27T22:42:18.337Z,17.19
2017-08-27T22:47:13.912Z,17.16
2017-08-27T22:52:09.708Z,17.11
2017-08-27T22:57:05.466Z,17.15
2017-08-27T23:02:01.411Z,17.22
2017-08-27T23:06:57.391Z,17.23
2017-08-27T23:11:53.355Z,16.89
2017-08-27T23:16:49.152Z,16.69
2017-08-27T23:21:44.897Z,16.69
2017-08-27T23:26:41.932Z,16.60
2017-08-27T23:31:37.566Z,16.54
2017-08-27T23:36:34.223Z,16.46
2017-08-27T23:41:30.872Z,16.43
2017-08-27T23:46:26.505Z,16.56
2017-08-27T23:51:22.258Z,16.33
2017-08-27T23:56:19.094Z,16.21
